METARS
Date METAR Location Area
04/09/2015 LG1B 041830Z 18000KT 26/13 Q1012 Arsakeio Athens
04/09/2015 LGY7 041930Z 04501KT 29/20 Q1012 Aegina Attica
04/09/2015 LG0B 042030Z 27001KT 27/16 Q1011 Agia Paraskeui Attica
04/09/2015 LG37 042000Z 00000KT 278/167 Q10112 Agia Paraskeyi Attica
04/09/2015 LG5C 041730Z 22503KT 28/22 Q1012 Alimos Attica
04/09/2015 LGH5 042030Z 15801KT 29/21 Q1012 Ampelokipoi Attica
04/09/2015 LGS5 041930Z 00000KT 24/22 Q1012 Anavissos Attica
04/09/2015 LGO0 041930Z 00000KT 29/17 Q1013 Ano Liosia Attica
04/09/2015 LG9B 041930Z 22500KT 29/18 Q1013 Aspropirgos Attica
04/09/2015 LGB9 041930Z 22500KT 29/19 Q1014 Athens - Gazi Attica
04/09/2015 LGL5 042030Z 00000KT 27/17 Q1017 Ekali Attica
04/09/2015 LGS3 041930Z 15800KT 29/20 Q1012 Faliro Attica
04/09/2015 LGI4 041830Z 00000G31104KT 279/142 Q10127 Hydra Attica
04/09/2015 LGM3 041930Z 15803KT 29/16 Q1013 Hydra Attica
20/08/2015 LGO2 201730Z 29302KT 19/10 Q1009 Imittos Attica
04/09/2015 LGT8 041930Z 00000KT 21/12 Q1013 Ippokratios Attica
04/09/2015 LG99 041930Z 02300KT -RA 25/18 Q1013 Kantza Attica
04/09/2015 LG13 042000Z 00000KT 26/17 Q1014 Kifissia Attica
04/09/2015 LG3C 041930Z 00000KT 28/21 Q1011 Korydallos Attica
04/09/2015 LGD6 041930Z 29302KT 28/22 Q1011 Lavrio Attica
04/09/2015 LGK0 041930Z 29300KT 28/17 Q1013 Marousi Attica
04/09/2015 LG00 042010Z 00000KT 25/15 Q1013 Marousi (Anavrita) Attica
04/09/2015 LGR0 041930Z 13500KT 29/19 Q1013 Nea Smirni Attica
04/09/2015 LGM8 041930Z 00000KT 29/20 Q1014 Neos Kosmos Attica
04/09/2015 LGA3 042009Z 32005KT 27/16 Q1013 Pallini - Kantza 2 Attica
04/09/2015 LGK3 041930Z 00000KT 23/12 Q1013 Parnitha 1230 EAA Attica
04/09/2015 LGT6 041930Z 00000KT 29/18 Q1013 Patissia Attica
04/09/2015 LGX9 041930Z 00000KT 26/16 Q1011 Penteli Attica
04/09/2015 LG67 042000Z 2922592G10422KT 294/155 Q10125 Penteli Attica
04/09/2015 LG6D 041930Z 18000KT 29/19 Q1013 Perama Attica
28/08/2015 LGU0 280230Z 33806KT 25/13 Q1016 Peristeri Attica
04/09/2015 LG9C 041930Z 00000KT +RA 29/18 Q 28 Petroupoli Attica
04/09/2015 LGY6 041930Z 31502KT 26/20 Q1012 Porto Rafti Attica
04/09/2015 LG96 041930Z 00000KT 27/20 Q1013 Psychico Attica
04/09/2015 LGZ0 041930Z 11303KT 25/18 Q1012 Rafina Attica
04/09/2015 LG2B 041930Z 09000KT 28/22 Q1013 SEF Attica
04/09/2015 LGG2 042030Z 29305KT 29/18 Q1011 Spata Attica
04/09/2015 LGS6 041730Z 11303KT 27/25 Q1011 Spetses Attica
04/09/2015 LG3B 041930Z 00000KT 23/13 Q1014 Tatoi Attica
04/09/2015 LGZ2 041930Z 13501KT 26/19 Q1013 Vari Attica
04/09/2015 LGR6 041930Z 22503KT 25/15 Q1013 Vilia Attica
04/09/2015 LG1D 041930Z 29300KT 28/16 Q1013 Vrilissia Attica
04/09/2015 LG74 042000Z 00000G31104KT 296/184 Q10123 Ymittos Attica
04/09/2015 LGG1 042000Z 00000KT 248/188 Q247 Kalivia Thorikou Attica E
04/09/2015 LG45 041930Z 20303KT 27/21 Q1015 Markopoulo Attica E
04/09/2015 LG72 032100Z 00000KT 234/167 Q10078 Keratea Attica SE
04/09/2015 LGW4 041930Z 02303KT 23/09 Q1001 Ag. Ioannis Sfakion Crete
04/09/2015 LGJ9 041930Z 24801KT 28/18 Q1012 Aghios Nikolaos Crete
04/09/2015 LGT4 042030Z 18003KT 24/17 Q1012 Alikianos Crete
04/09/2015 LGB6 041930Z 24803KT 23/13 Q1010 Anogeia Crete
04/09/2015 LGZ6 041930Z 27003KT 22/13 Q1014 Askyfou Crete
04/09/2015 LG25 042030Z 13502KT 25/20 Q1012 Chania Crete
04/09/2015 LGN3 041930Z 20303KT 25/20 Q1013 Chania Center Crete
04/09/2015 LG61 041930Z 00004KT 27/23 Q1012 Cost - Irakleio Crete
04/09/2015 LG2C 042030Z 00000KT 22/13 Q1007 Elos Crete
01/09/2015 LGL9 011930Z 00000KT 23/19 Q1012 Falasarna Crete
04/09/2015 LG9A 041930Z 24819KT 26/16 Q1011 Finokalia - Lasithi Crete
04/09/2015 LGL1 042030Z 04502KT 25/14 Q1011 Fourfouras Crete
23/08/2015 LGD4 231030Z 00010KT 29/18 Q1008 Fragmapotamon - Rethymno Crete
03/09/2015 LG30 031430Z 33808KT 28/23 Q1010 Heraklion - Knossos Crete
04/09/2015 LG95 041930Z 00006KT 29/17 Q1013 Ierapetra Crete
04/09/2015 LGP0 041930Z 33803KT 30/16 Q1011 Lentas Hrakleion Crete
15/08/2015 LGD7 150530Z 00000KT 24/22 Q1008 Metaxochori - Heraklion Crete
04/09/2015 LGI2 041930Z 06800KT 26/18 Q1012 Mires Crete
04/09/2015 LG36 041930Z 00005KT 30/17 Q1011 Paleochora Crete
04/09/2015 LG58 041930Z 15803KT 26/19 Q1011 Rethymno Crete
04/09/2015 LGT2 041930Z 09004KT 30/17 Q1011 Rethymno - Plakia Crete
04/09/2015 LGB4 041930Z 00000KT 21/09 Q1013 Samaria Crete
14/08/2015 LGY1 142030Z 00000KT 20/19 Q1010 Samaria Crete
04/09/2015 LG9D 041830Z 00000KT 23/13 Q1014 Sebrona Crete
04/09/2015 LGM2 041930Z 27001KT 25/19 Q1011 Sitia Crete
04/09/2015 LG75 041930Z 04503KT 26/15 Q1014 Spili - Rethymnon Crete
04/09/2015 LG8B 041930Z 22501KT 25/17 Q1013 Stavrakia - Heraclion Crete
04/09/2015 LG50 041930Z 20301KT 17/13 Q1014 Tzermiado Lasithi Crete
04/09/2015 LG7B 041730Z 06803KT 27/17 Q1012 Vagionia - Heraklion Crete
04/09/2015 LG70 041930Z 09001KT 22/16 Q1012 Vrysses Crete
04/09/2015 LGT5 041930Z 02301KT 25/22 Q1011 Amorgos Cyclades
04/09/2015 LGN6 041930Z 00000KT 28/15 Q1012 Andros Cyclades
04/09/2015 LGS7 041930Z 02310KT 26/23 Q1011 Donoussa Cyclades
04/09/2015 LGI0 041930Z 00002KT 26/22 Q1012 Ios Cyclades
04/09/2015 LGP2 041930Z 20303KT 27/15 Q1015 Ioulida - Kea Cyclades
04/09/2015 LGP5 041930Z 24803KT 27/20 Q1011 Iraklia Cyclades
04/09/2015 LGE3 042030Z 27000KT 27/16 Q1013 Kea Cyclades
04/09/2015 LGX8 041930Z 06800KT 26/22 Q1011 Koufonissia Cyclades
04/09/2015 LGS0 041930Z 31500KT 26/17 Q1014 Milos Cyclades
04/09/2015 LG66 041930Z 00002KT 29/17 Q1012 Mykonos Cyclades
04/09/2015 LGM0 041930Z 04502KT 28/17 Q1012 Naxos Cyclades
04/09/2015 LGV3 041930Z 02301KT 21/13 Q1013 Naxos - Apiranthos Cyclades
04/09/2015 LGT0 041930Z 29308KT 29/15 Q1012 Naxos - Apollonas Cyclades
04/09/2015 LGU1 041930Z 13501KT 27/12 Q1012 Naxos - Damarionas Cyclades
04/09/2015 LGU2 040630Z 31506KT 27/12 Q1011 Naxos - Koronos Cyclades
04/09/2015 LGN7 041930Z 29303KT 27/13 Q1013 Naxos - Kynidaros Cyclades
11/08/2015 LGW1 111730Z 00000KT 27/17 Q1012 Naxos - Melanes Cyclades
04/09/2015 LGO7 041930Z 00002KT 25/20 Q1012 Naxos - Mikri Vigla Cyclades
04/09/2015 LG02 041930Z 00003KT 25/23 Q1013 Paros Cyclades
04/09/2015 LGX5 041630Z 24804KT 27/21 Q1010 Santorini Cyclades
04/09/2015 LGX7 041930Z 27005KT 25/21 Q1011 Schinoussa Cyclades
17/06/2015 LG07 171830Z 00000KT 261/94 Q10040 Tinos Cyclades
04/09/2015 LGB8 041930Z 27001KT 28/17 Q1012 Tinos NOA Cyclades
04/09/2015 LGAB 042030Z 18003KT 25/14 Q1009 Emponas - Rhodes Dodecanese
04/09/2015 LGG6 041930Z 00000KT 27/21 Q1012 Kalymnos Dodecanese
04/09/2015 LGAC 042030Z 29306KT 25/23 Q1010 Kattavia - Rhodes Dodecanese
04/09/2015 LGAA 042030Z 33801KT 28/21 Q1011 Lindos - Rhodes Dodecanese
04/09/2015 LG65 041930Z 24802KT 29/19 Q1011 Patmos Dodecanese
04/09/2015 LGS9 041930Z 27003KT 25/21 Q1012 Rhodes Dodecanese
04/09/2015 LGM5 041930Z 24801KT 26/24 Q1011 Kasos Dodecanisa
04/09/2015 LGX1 041930Z 27001KT 27/17 Q1011 Kos Dodekanissa
04/09/2015 LG6C 042030Z 22501KT 26/16 Q1011 Chios Town East Aegean
04/09/2015 LGT1 041930Z 00003KT 29/19 Q1010 Fournoi East Aegean
04/09/2015 LGI9 041930Z 15802KT 23/14 Q1011 Ikaria East Aegean
04/09/2015 LGI5 041930Z 04500KT 22/16 Q1011 Lemnos East Aegean
04/09/2015 LGJ3 041930Z 29303KT 30/14 Q1014 Lesvos - Thermi East Aegean
20/08/2015 LGZ7 201530Z 33807KT 18/07 Q1018 Mantamados East Aegean
04/09/2015 LGY5 041930Z 11303KT 26/13 Q1013 Molyvos East Aegean
04/09/2015 LGF1 042030Z 15802KT 24/17 Q1010 Samos East Aegean
04/09/2015 LG2D 041930Z 00001KT 28/12 Q1011 Agia Paraskeui Lesvos East Aegen
04/09/2015 LGW7 041930Z 27005KT 27/16 Q1011 Akrotirio Paksimada Evia
31/08/2015 LGO3 311730Z 02314KT 28/08 Q1013 Chalkida Evia
04/09/2015 LGR5 041830Z 33803KT 30/14 Q1012 Kavodoro Evia
09/08/2015 LGY0 090700Z 11300KT 09/05 Q1034 Krieza Evia
04/09/2015 LGX0 041930Z 27000KT 25/13 Q1014 Kymi Evia
15/08/2015 LGT7 151230Z 09003KT 26/17 Q1008 Setta Evia
04/09/2015 LG81 041930Z 02301KT 24/13 Q1012 Steni Evia
04/09/2015 LGC4 040830Z 20306KT 31/21 Q1013 Styra Evia
27/08/2015 LGD3 271730Z 33806KT 24/17 Q1017 Zarakes Evia
04/09/2015 LGP6 041930Z 11301KT 22/19 Q1015 Agia Kyriaki Ioanninon Hepirus
04/09/2015 LGO1 041930Z 00000KT 23/18 Q1012 Aridaia Hepirus
04/09/2015 LGD2 042030Z 13501KT 26/22 Q1014 Arta - Kompoti Hepirus
04/09/2015 LG38 042030Z 00000KT 26/23 Q1014 Arta - Vlacherna Hepirus
04/09/2015 LGE4 041130Z 33803KT 30/11 Q1014 Aspraggeloi Hepirus
04/09/2015 LGI3 041930Z 11302KT 22/18 Q1014 Derviziana Hepirus
04/09/2015 LGP4 041930Z 04500KT 22/15 Q1013 Dodoni Hepirus
02/09/2015 LGL8 021430Z 02304KT 24/07 Q1015 Grammos Hepirus
04/09/2015 LG43 042030Z 00000KT 25/19 Q1014 Igoumenitsa Hepirus
04/09/2015 LG49 041930Z 00000KT 21/16 Q1013 Ioannina Anatoli Hepirus
04/09/2015 LGK1 041930Z 31501KT 26/23 Q1014 Kanali, Preveza Hepirus
22/08/2015 LGE0 220830Z 24802KT 23/16 Q1013 Katarraktis - Arta Hepirus
04/09/2015 LGO5 041930Z 29303KT 20/10 Q1013 Kerasovo Konitsa Hepirus
02/09/2015 LG3A 021330Z 22504KT 34/14 Q1009 Konitsa Hepirus
04/09/2015 LGO8 042030Z 18000KT 19/12 Q1014 Metsovo Hepirus
04/09/2015 LGK6 041830Z 29301KT 23/13 Q1015 Papigo Hepirus
04/09/2015 LGF6 041730Z 27003KT 24/19 Q1013 Paramythia Hepirus
04/09/2015 LGK9 041930Z 06802KT 26/22 Q1016 Parga Hepirus
04/09/2015 LGK7 041630Z 18002KT 26/20 Q1012 Pesta Hepirus
04/09/2015 LGY9 041830Z 27001KT 21/10 Q1010 Plikati Ioanninon Hepirus
04/09/2015 LGP1 041930Z 00000KT 22/20 Q1015 Pramanta Hepirus
04/09/2015 LGK2 041830Z 27001KT 21/18 Q1013 Theodoriana, Arta Hepirus
04/09/2015 LGD0 041930Z 02302KT 18/13 Q1014 Tristeno - Ioannina Hepirus
04/09/2015 LGM4 041930Z 02300KT 22/18 Q1014 Tyria Hepirus
04/09/2015 LGR8 041930Z 00000KT 20/18 Q1014 Vourgareli Artas Hepirus
02/09/2015 LGN9 021330Z 00001KT 29/13 Q1010 Vovoussa Hepirus
04/09/2015 LGN0 041930Z 00000KT 24/14 Q1013 Zitsa Hepirus
04/09/2015 LGJ2 041930Z 00000KT 26/23 Q1014 Corfu - Gouvia Ionio
04/09/2015 LGB0 041930Z 29306KT 30/15 Q1014 Ithaki Ionio
04/09/2015 LGI7 041830Z 27006KT 29/15 Q1015 Lefkada Ionio
04/09/2015 LGN1 041930Z 31503KT 26/24 Q1013 Paxoi Ionio
04/09/2015 LGN4 041930Z 00000KT 20/15 Q1013 Zakynthos Ionio
04/09/2015 LGG9 041930Z 27000KT 25/13 Q1011 Amynteo Macedonia
03/09/2015 LG33 032330Z 00000KT 25/13 Q1009 Chalkidiki - Polygyros Macedonia
29/08/2015 LGJ1 290930Z 00002KT 31/09 Q1021 Chalkidiki - Stratoni Macedonia
04/09/2015 LGZ5 041930Z 09003KT 26/18 Q1012 Didymoteicho Macedonia
04/09/2015 LG55 042030Z 11301KT 24/17 Q1011 Dion Macedonia
04/09/2015 LGU8 041930Z 15800KT 25/15 Q1011 Doxato - Drama Macedonia
04/09/2015 LGH3 041950Z 06500KT 22/17 Q1011 Drama Macedonia
04/09/2015 LGH6 042030Z 33800KT 23/16 Q1011 Drama 2 Macedonia
04/09/2015 LGY3 041930Z 18001KT 27/15 Q1012 Eleutheroupoli Macedonia
18/08/2015 LGJ6 181050Z 16812KT 08/02 Q1011 Falakro Macedonia
05/08/2015 LG63 052030Z 00000KT 22/17 Q1014 Florina Macedonia
04/09/2015 LGZ8 041830Z 00000KT 28/16 Q1011 Fotolivos Macedonia
03/09/2015 LG73 031230Z 13501KT 34/19 Q1008 Giannitsa Macedonia
04/09/2015 LGF2 041930Z 00000KT 21/13 Q1013 Grevena Macedonia
04/09/2015 LGO4 041930Z 09004KT 23/11 Q1013 Hmathia - Rizomata Macedonia
04/09/2015 LG7D 041930Z 00000KT 30/13 Q1010 Iera Moni Megistis Lauras Macedonia
04/09/2015 LG93 040830Z 20303KT 19/08 Q1016 Kaimaktsalan Macedonia
03/09/2015 LG4D 030930Z 31502KT 31/17 Q1009 Kalampaki Drama Macedonia
04/09/2015 LGO9 041930Z 00000KT 23/18 Q1012 Kassandreia (Xalkidiki) Macedonia
04/09/2015 LGC0 041930Z 20300KT 24/11 Q1012 Kastoria Macedonia
04/09/2015 LG27 041950Z 14600KT 27/19 Q1012 Kavala - Dexameni Macedonia
04/09/2015 LG5D 040530Z 00000KT 20/13 Q1012 Kerasia Edessas Macedonia
04/09/2015 LG42 041930Z 18003KT 23/13 Q1010 Kilkis Macedonia
04/09/2015 LGW8 041930Z 00000KT 26/16 Q1013 Kimisi Macedonia
04/09/2015 LGJ4 041930Z 27001KT 22/13 Q1015 Kozani - Ardassa Macedonia
04/09/2015 LGP3 041930Z 00000KT 18/08 Q1013 Lailias - Serres Macedonia
04/09/2015 LGZ9 041930Z 29303KT 25/14 Q1013 Mavropigi Macedonia
26/08/2015 LG3D 260730Z 18003KT 27/14 Q1018 Mikrokampos Drama Macedonia
04/09/2015 LG1E 041930Z 02307KT 26/13 Q1011 Moni Simonos Petras Macedonia
04/09/2015 LG40 041930Z 29301KT 28/14 Q1013 Naousa Macedonia
04/09/2015 LG4B 041930Z 00000KT 21/18 Q1012 Nea Peramos Macedonia
04/09/2015 LGZ4 042030Z 11300KT 26/17 Q1011 Neos Marmaras Macedonia
04/09/2015 LG48 041930Z 09005KT 22/10 Q1013 Nevrokopi Drama Macedonia
04/09/2015 LGS4 041930Z 11301KT 25/13 Q1011 Notio Pedio - Eordea Macedonia
04/09/2015 LGW0 041930Z 00000KT 20/16 Q1013 Paranesti Macedonia
04/09/2015 LG26 041930Z 27000KT 22/12 Q1011 Ptolemaida Macedonia
04/09/2015 LG87 041930Z 20304KT 18/10 Q1014 Seli Ski Center Macedonia
04/09/2015 LGW6 041930Z 00000KT 26/16 Q1012 Serres Macedonia
04/09/2015 LGD9 041930Z 20300KT 27/14 Q1012 Serres - Kerkini Macedonia
04/09/2015 LG14 042000Z 00000G31104KT 254/96 Q10121 Serres - Proti Macedonia
04/09/2015 LG5B 041930Z 15802KT 25/17 Q1012 Thasos Macedonia
04/09/2015 LGR9 041930Z 13500KT 28/19 Q1012 Thessaloniki Macedonia
04/09/2015 LGF0 041930Z 00000KT 18/13 Q1012 Variko Macedonia
31/08/2015 LG82 310130Z 27009KT 18/08 Q1007 Vassilitsa Macedonia
04/09/2015 LGC2 041830Z 20300KT 26/15 Q1009 Vatopedi - Athos Macedonia
04/09/2015 LGE9 041930Z 00001KT 24/12 Q1014 Vegoritida Macedonia
04/09/2015 LGE5 041930Z 06800KT 25/19 Q1010 Veroia Macedonia
04/09/2015 LG98 041830Z 27000KT 19/09 Q1014 Vlasti - Kozani Macedonia
04/09/2015 LGF5 042001Z 17800KT 23/10 Q1013 Vounochori - Kavala Macedonia
04/09/2015 LG2E 041930Z 24801KT 27/20 Q1012 Achaia Peloponissos
04/09/2015 LGU5 041930Z 31503KT 27/15 Q1012 Agioi Theodoroi Peloponissos
04/09/2015 LGU7 041930Z 00000KT 24/15 Q1012 Alagonia - Messinia Peloponissos
04/09/2015 LG52 041930Z 00000KT 25/21 Q1013 Amaliada Peloponissos
04/09/2015 LG77 041930Z 00000KT 22/17 Q1014 Andritsaina Peloponissos
04/09/2015 LGU6 041930Z 00000KT 27/20 Q1014 Arfara - Messinia Peloponissos
04/09/2015 LGT3 040430Z 18001KT 23/17 Q1012 Argos Peloponissos
04/09/2015 LGV0 040430Z 18003KT 23/17 Q1011 Derveni Peloponissos
28/08/2015 LGK4 280630Z 15801KT -RA 03/02 Q1021 Elati Peloponissos
04/09/2015 LGC3 041930Z 00000KT 21/17 Q1013 Foloi - Ilia Peloponissos
04/09/2015 LGX6 041930Z 33803KT 27/16 Q1014 Geraki Peloponissos
04/09/2015 LGB7 041930Z 31502KT 26/24 Q1014 Ilia - Vartholomio Peloponissos
04/09/2015 LG85 041830Z 33810KT 31/19 Q1011 Isthmos Peloponissos
04/09/2015 LG6A 041930Z 02302KT 29/22 Q1013 Kalamata Peloponissos
31/08/2015 LGV7 310730Z 15801KT 28/17 Q1007 Kalavryta Peloponissos
04/09/2015 LGZ3 041930Z 15804KT 28/22 Q1013 Kardamyli Peloponissos
31/08/2015 LGJ5 311030Z 31505KT 30/21 Q 962 Katakolo Peloponissos
04/09/2015 LGP7 042030Z 11300KT 19/14 Q1014 Kato Vlassia Peloponissos
27/08/2015 LGB2 272000Z 20301KT 27/23 Q1011 Katoachaia Peloponissos
04/09/2015 LGB5 041930Z 00003KT 31/13 Q1012 Kavomalias Peloponissos
04/09/2015 LG8D 041930Z 18001KT 27/21 Q1012 Kiato Peloponissos
04/09/2015 LGM7 041930Z 00000KT 29/15 Q1014 Kranidi Peloponissos
04/09/2015 LG0D 041930Z 20303KT 24/10 Q1012 Kryoneri Peloponissos
04/09/2015 LGV1 041930Z 09000KT 25/21 Q1014 Kyparissia Peloponissos
04/09/2015 LGW9 041930Z 00000KT 22/12 Q1013 Lagadia Peloponissos
04/09/2015 LG0A 041730Z 20300KT 23/13 Q1014 Lampia - Ilia Peloponissos
04/09/2015 LG92 041930Z 18003KT 25/22 Q1012 Lappa-Larissos-Achaia Peloponissos
04/09/2015 LG4C 041930Z 00000KT 22/13 Q1014 Levidi Peloponissos
07/08/2015 LG91 070630Z 00000KT 21/15 Q1012 Lousika-Olenias-Achaia Peloponissos
04/09/2015 LGV4 041930Z 06801KT 26/11 Q1012 Lykochia Peloponissos
04/09/2015 LGG5 041930Z 24800KT 24/17 Q1014 Megalopoli Peloponissos
04/09/2015 LGV2 041930Z 22501KT 23/17 Q1015 Messinia - Kopanaki Peloponissos
04/09/2015 LGF8 041930Z 27001KT 27/19 Q1013 Molaoi Peloponissos
04/09/2015 LG56 041930Z 24801KT 30/14 Q1012 Monemvasia Peloponissos
04/09/2015 LGE1 041930Z 00000KT 24/14 Q1012 Nemea Peloponissos
04/09/2015 LGD5 041930Z 31500KT 25/18 Q1013 Oleni - Ilia Peloponissos
04/09/2015 LGB3 041930Z 00000KT 27/21 Q1013 Olympia Peloponissos
04/09/2015 LGV6 041930Z 22503KT 18/01 Q1015 Panachaiko Oros Peloponissos
04/09/2015 LGZ1 041930Z 00000KT 00/00 Q 0 Patra Peloponissos
04/09/2015 LG71 042000Z 00000G3456KT 273/172 Q10139 Patra - Drosia Peloponissos
04/09/2015 LG84 041930Z 22505KT 28/24 Q1014 Patra - Port Peloponissos
04/09/2015 LGG7 041930Z 00000KT 23/20 Q1014 Pinia Peloponissos
04/09/2015 LG59 042030Z 29300KT 28/20 Q1013 Pirgos Peloponissos
04/09/2015 LGH8 041930Z 24807KT 27/23 Q1013 Rio Peloponissos
04/09/2015 LGT9 041430Z 22504KT 30/18 Q1012 Romanos - Patra Peloponissos
04/09/2015 LGA0 041930Z 00000KT 00/00 Q 0 Sagaiika Peloponissos
04/09/2015 LGF7 041930Z 31501KT 23/18 Q1015 Sparti Peloponissos
04/09/2015 LGS2 041930Z 04500KT 23/09 Q1014 Stemnitsa Peloponissos
04/09/2015 LGR1 041930Z 27004KT 23/13 Q1011 Trikala Korinthias Peloponissos
04/09/2015 LG83 042030Z 00000KT 21/15 Q1014 Tripoli Peloponissos
04/09/2015 LGU9 041930Z 00000KT 18/14 Q1014 Vytina Peloponissos
04/09/2015 LG86 041930Z 18001KT 23/21 Q1014 Zaxaro Peloponissos
04/09/2015 LGN2 041830Z 00000KT 26/23 Q1014 Alonissos Sporades
04/09/2015 LGI1 041930Z 00000KT 26/22 Q1012 Skyros Sporades
04/09/2015 LGH9 041930Z 13500KT 26/19 Q1016 Agrinio Sterea Ellada
04/09/2015 LGC7 041930Z 00000KT 27/22 Q1014 Aitoliko Sterea Ellada
04/09/2015 LG29 042030Z 00000KT 24/13 Q1012 Amfiklia Sterea Ellada
04/09/2015 LGH1 040400Z 00000KT 224/138 Q10110 Amfiklia 2 Sterea Ellada
04/09/2015 LGG8 041930Z 18001KT 27/21 Q1015 Antikira Sterea Ellada
04/09/2015 LG97 042010Z 00000KT 25/12 Q1012 Arachova Sterea Ellada
04/09/2015 LGC5 041930Z 20303KT 24/12 Q1014 Arahova Sterea Ellada
04/09/2015 LGH0 041830Z 00000KT 00/00 Q 0 Avlida Sterea Ellada
04/09/2015 LGR2 041930Z 22502KT 24/18 Q1013 Dam of Mornos Sterea Ellada
25/08/2015 LGR3 251930Z 00000KT 21/14 Q1016 Diakopi of Lidoriki Sterea Ellada
04/09/2015 LGW5 041930Z 24804KT 28/12 Q1011 Domokos Sterea Ellada
14/08/2015 LG21 141323Z 24804KT 29/15 Q1014 Evia - Chalkida Sterea Ellada
04/09/2015 LGY4 041930Z 29303KT 30/19 Q1013 Galaxidi Sterea Ellada
04/08/2015 LGC8 041510Z 112864G7830KT +RA 206/192 Q10110 Gavalou - Aitol/nia Sterea Ellada
04/09/2015 LGJ7 041930Z 20310KT 28/17 Q1014 Kaparelli Sterea Ellada
04/09/2015 LGC9 041930Z 00000KT 16/13 Q1016 Karpenisi Sterea Ellada
04/09/2015 LGP9 041930Z 22503KT 29/14 Q1010 Kleidi Viotias Sterea Ellada
04/09/2015 LGR4 041930Z 27001KT 23/17 Q1013 Koniakos of Lidoriki Sterea Ellada
04/09/2015 LG5A 041930Z 00001KT 27/15 Q1012 Kopaida Sterea Ellada
04/09/2015 LGV9 041830Z 00000KT 29/16 Q1011 Lamia Sterea Ellada
04/09/2015 LGJ8 041930Z 00000KT 26/14 Q1010 Lefkochori Sterea Ellada
04/09/2015 LGI8 041930Z 22502KT 24/14 Q1013 Livadeia Sterea Ellada
04/09/2015 LGE7 041930Z 27000KT 25/15 Q1010 Makrakomi Sterea Ellada
04/09/2015 LGA6 041930Z 00000KT 19/14 Q1013 Mavrolithari - Vardousia Sterea Ellada
04/09/2015 LGK8 042030Z 24801KT 21/13 Q1012 Myriki Sterea Ellada
25/08/2015 LGG4 252030Z 11302KT 20/12 Q1015 Orini Nafpaktia Sterea Ellada
20/08/2015 LGA4 200900Z 22502G16KT 01/01 Q1009 Parnassos Sterea Ellada
18/08/2015 LGF9 180830Z 00000KT 07/M04 Q1016 Parnassos1950 Sterea Ellada
04/09/2015 LGL0 041930Z 00000KT 25/15 Q1013 Polydroso Sterea Ellada
07/08/2015 LGR7 071230Z 04508KT 11/09 Q1025 Prasino - Viotia Sterea Ellada
04/09/2015 LG69 042030Z 00000KT 27/14 Q1012 Tanagra Sterea Ellada
04/09/2015 LGO6 041930Z 06801KT 27/16 Q1013 Theologos Sterea Ellada
21/08/2015 LG94 022100Z 00000KT 214/204 Q10132 Hortiatis Thes/niki
04/09/2015 LG15 042012Z 05500KT 29/03 Q1019 Kamara Thes/niki Thes/niki
04/09/2015 LGA5 041930Z 00000KT 25/17 Q1012 Lagadas Thes/niki
02/09/2015 LG7C 020730Z 33802KT 27/20 Q1011 Nea Michaniona Thes/niki
04/09/2015 LG8C 041930Z 06800KT 23/19 Q1012 Sindos Thes/niki
24/08/2015 LG11 240730Z 12901KT 10/06 Q1006 West Thes/niki Thes/niki
24/08/2015 LGV5 242030Z 20303KT 19/13 Q1015 Tsamantas Thesprotia
30/08/2015 LGL4 300730Z 02301KT 25/16 Q1008 Gardiki Thessalia
04/09/2015 LGW3 041930Z 29301KT 31/13 Q1010 Kalabaka Thessalia
04/09/2015 LG2A 041930Z 09002KT 24/16 Q1012 Karditsa Thessalia
04/09/2015 LG41 042000Z 00000G1728KT 291/120 Q10108 Larissa Thessalia
04/09/2015 LGL6 041930Z 00000KT 30/15 Q1011 Larissa Thessalia
04/09/2015 LGU3 042000Z 00000G864KT 279/155 Q10103 Larissa Thessalia
04/09/2015 LGS8 041930Z 00000KT 26/12 Q1012 Larissa - Agia Thessalia
04/09/2015 LGL7 041930Z 18010KT 24/12 Q1010 Limni Plastira Thessalia
04/09/2015 LG6B 041730Z 13503KT 31/13 Q1008 Moni Paou Thessalia
26/08/2015 LGU4 260700Z 29304KT 04/M07 Q1013 Olympos Thessalia
04/09/2015 LG7A 041920Z 00000G1728KT 280/175 Q10124 Pedio Areos Volou Thessalia
04/09/2015 LGE2 041930Z 27001KT 19/13 Q1013 Pertouli Thessalia
04/09/2015 LGY2 041930Z 09003KT 29/10 Q1012 Portaria - Pelio Thessalia
04/09/2015 LG80 041930Z 20304KT 28/16 Q1015 Skopelos - Sporades Thessalia
31/08/2015 LG24 310530Z 00005KT 25/21 Q1018 Sporades - Skiathos Thessalia
04/09/2015 LG57 041530Z 15802KT 35/16 Q1010 Trikala Thessalia
03/09/2015 LG51 031930Z 04502KT 27/20 Q1010 Volos Thessalia
04/09/2015 LGG3 041930Z 24802KT 26/13 Q1013 Zagora EAA Thessalia
04/09/2015 LGD8 041930Z 31503KT 25/14 Q1011 Alexandroupolis Thraki
04/09/2015 LGM9 041930Z 11302KT 24/17 Q1010 Imeros Thraki
10/08/2015 LG35 102238Z 10600KT 06/01 Q1026 Komotini Thraki
04/09/2015 LGL2 041930Z 00000KT 28/17 Q1012 Metaxades - Evros Thraki
04/09/2015 LG31 041930Z 15802KT 27/18 Q1011 Orestiada Thraki
04/09/2015 LGC1 041830Z 31501KT 27/21 Q1012 Samothraki Thraki
04/09/2015 LGC6 041930Z 02300KT 25/20 Q1012 Xanthi Thraki
www.meteorologia.gr